createdAt,value
2018-08-23T00:01:33.862Z,42.97
2018-08-23T00:04:06.497Z,49.93
2018-08-23T00:06:36.651Z,44.50
2018-08-23T00:09:08.946Z,43.73
2018-08-23T00:11:49.314Z,48.07
2018-08-23T00:14:20.412Z,44.00
2018-08-23T00:16:51.462Z,46.83
2018-08-23T00:19:20.606Z,46.33
2018-08-23T00:21:51.452Z,44.23
2018-08-23T00:24:22.379Z,47.87
2018-08-23T00:26:59.374Z,48.33
2018-08-23T00:29:30.545Z,45.57
2018-08-23T00:32:06.314Z,43.70
2018-08-23T00:34:38.395Z,44.43
2018-08-23T00:37:09.830Z,41.43
2018-08-23T00:39:40.458Z,47.07
2018-08-23T00:42:12.742Z,48.10
2018-08-23T00:44:56.437Z,52.83
2018-08-23T00:47:29.466Z,48.20
2018-08-23T00:49:58.845Z,48.77
2018-08-23T00:52:46.981Z,48.63
2018-08-23T00:55:28.553Z,42.87
2018-08-23T00:57:58.475Z,47.20
2018-08-23T01:00:29.461Z,46.40
2018-08-23T01:03:02.273Z,45.53
2018-08-23T01:05:36.346Z,44.17
2018-08-23T01:08:07.123Z,48.43
2018-08-23T01:10:40.590Z,45.43
2018-08-23T01:13:09.943Z,47.40
2018-08-23T01:15:43.408Z,46.70
2018-08-23T01:18:21.016Z,44.90
2018-08-23T01:20:52.478Z,45.03
2018-08-23T01:23:24.262Z,39.00
2018-08-23T01:25:55.234Z,40.57
2018-08-23T01:28:25.385Z,40.40
2018-08-23T01:30:56.458Z,39.70
2018-08-23T01:33:27.835Z,36.30
2018-08-23T01:36:00.626Z,34.10
2018-08-23T01:38:30.527Z,36.93
2018-08-23T01:41:05.174Z,36.80
2018-08-23T01:43:34.854Z,34.33
2018-08-23T01:46:05.017Z,34.53
2018-08-23T01:48:35.016Z,34.90
2018-08-23T01:51:04.486Z,34.27
2018-08-23T01:53:38.497Z,38.40
2018-08-23T01:56:09.287Z,32.70
2018-08-23T01:58:39.433Z,29.63
2018-08-23T02:01:15.650Z,35.57
2018-08-23T02:03:46.830Z,32.87
2018-08-23T02:06:18.440Z,32.23
2018-08-23T02:08:50.382Z,34.67
2018-08-23T02:11:22.746Z,36.30
2018-08-23T02:13:53.546Z,37.87
2018-08-23T02:16:24.215Z,39.57
2018-08-23T02:18:55.974Z,35.27
2018-08-23T02:21:27.165Z,35.63
2018-08-23T02:23:57.430Z,39.63
2018-08-23T02:26:28.441Z,34.37
2018-08-23T02:29:00.492Z,35.93
2018-08-23T02:31:31.447Z,37.10
2018-08-23T02:34:01.389Z,39.80
2018-08-23T02:36:33.139Z,37.90
2018-08-23T02:39:05.373Z,37.87
2018-08-23T02:41:36.399Z,40.23
2018-08-23T02:44:06.563Z,37.73
2018-08-23T02:46:37.407Z,37.80
2018-08-23T02:49:07.668Z,37.13
2018-08-23T02:51:43.037Z,37.53
2018-08-23T02:54:13.927Z,40.40
2018-08-23T02:56:46.948Z,40.50
2018-08-23T02:59:17.735Z,40.60
2018-08-23T03:01:50.332Z,42.83
2018-08-23T03:04:35.922Z,42.13
2018-08-23T03:07:06.900Z,44.47
2018-08-23T03:09:39.474Z,45.00
2018-08-23T03:12:14.747Z,40.50
2018-08-23T03:14:46.295Z,41.20
2018-08-23T03:17:25.228Z,43.83
2018-08-23T03:20:18.475Z,41.77
2018-08-23T03:22:50.727Z,39.50
2018-08-23T03:25:22.486Z,39.37
2018-08-23T03:27:54.779Z,38.73
2018-08-23T03:30:25.349Z,41.07
2018-08-23T03:32:55.508Z,39.83
2018-08-23T03:35:26.348Z,42.37
2018-08-23T03:37:56.737Z,40.83
2018-08-23T03:40:27.465Z,43.47
2018-08-23T03:42:58.323Z,45.07
2018-08-23T03:45:28.167Z,42.63
2018-08-23T03:47:59.927Z,42.70
2018-08-23T03:50:32.543Z,44.87
2018-08-23T03:53:02.375Z,43.77
2018-08-23T03:55:32.606Z,46.90
2018-08-23T03:58:02.700Z,48.13
2018-08-23T04:00:38.187Z,44.07
2018-08-23T04:03:12.285Z,46.57
2018-08-23T04:05:43.654Z,44.83
2018-08-23T04:08:14.672Z,43.27
2018-08-23T04:10:45.578Z,49.20
2018-08-23T04:13:16.378Z,50.30
2018-08-23T04:15:47.775Z,53.07
2018-08-23T04:18:18.184Z,52.00
2018-08-23T04:20:53.339Z,52.67
2018-08-23T04:23:24.203Z,55.83
2018-08-23T04:25:54.710Z,53.90
2018-08-23T04:28:26.693Z,50.27
2018-08-23T04:30:57.022Z,54.23
2018-08-23T04:33:26.522Z,48.40
2018-08-23T04:35:55.586Z,53.87
2018-08-23T04:38:25.491Z,53.03
2018-08-23T04:40:58.296Z,50.33
2018-08-23T04:43:27.831Z,53.97
2018-08-23T04:45:59.312Z,52.70
2018-08-23T04:48:29.183Z,50.43
2018-08-23T04:50:59.363Z,57.47
2018-08-23T04:53:30.083Z,55.73
2018-08-23T04:56:00.415Z,54.17
2018-08-23T04:58:30.627Z,54.73
2018-08-23T05:01:02.050Z,62.10
2018-08-23T05:03:32.175Z,58.80
2018-08-23T05:06:03.256Z,59.57
2018-08-23T05:08:34.262Z,59.83
2018-08-23T05:11:03.557Z,61.03
2018-08-23T05:13:41.167Z,56.87
2018-08-23T05:16:11.211Z,58.13
2018-08-23T05:18:40.743Z,59.57
2018-08-23T05:21:10.145Z,61.93
2018-08-23T05:23:41.323Z,61.00
2018-08-23T05:26:15.210Z,61.40
2018-08-23T05:28:59.413Z,60.03
2018-08-23T05:31:31.122Z,57.03
2018-08-23T05:34:02.159Z,63.33
2018-08-23T05:36:32.628Z,53.47
2018-08-23T05:39:05.523Z,60.10
2018-08-23T05:41:36.280Z,58.73
2018-08-23T05:44:11.863Z,58.03
2018-08-23T05:46:47.259Z,65.47
2018-08-23T05:49:16.610Z,64.57
2018-08-23T05:51:47.165Z,63.63
2018-08-23T05:54:18.327Z,70.93
2018-08-23T05:56:49.415Z,71.43
2018-08-23T05:59:19.833Z,72.17
2018-08-23T06:01:54.729Z,66.03
2018-08-23T06:04:36.624Z,67.30
2018-08-23T06:07:09.011Z,70.27
2018-08-23T06:09:40.944Z,69.80
2018-08-23T06:12:11.967Z,73.03
2018-08-23T06:14:44.062Z,74.37
2018-08-23T06:17:14.310Z,68.87
2018-08-23T06:19:44.461Z,79.80
2018-08-23T06:22:17.043Z,73.03
2018-08-23T06:24:49.232Z,72.30
2018-08-23T06:27:20.747Z,71.10
2018-08-23T06:29:51.326Z,69.67
2018-08-23T06:32:20.966Z,71.83
2018-08-23T06:34:52.671Z,74.30
2018-08-23T06:37:24.280Z,75.73
2018-08-23T06:39:53.846Z,64.13
2018-08-23T06:42:37.350Z,68.97
2018-08-23T06:45:07.650Z,68.63
2018-08-23T06:47:40.680Z,69.23
2018-08-23T06:50:11.651Z,63.93
2018-08-23T06:52:47.598Z,77.30
2018-08-23T06:55:22.968Z,77.00
2018-08-23T06:57:56.606Z,73.80
2018-08-23T07:00:27.124Z,77.60
2018-08-23T07:02:57.480Z,74.23
2018-08-23T07:05:27.715Z,76.30
2018-08-23T07:08:00.839Z,62.57
2018-08-23T07:10:31.162Z,75.57
2018-08-23T07:13:01.695Z,67.30
2018-08-23T07:15:31.715Z,75.40
2018-08-23T07:18:02.179Z,74.30
2018-08-23T07:20:31.370Z,70.10
2018-08-23T07:23:01.405Z,67.13
2018-08-23T07:25:36.506Z,77.20
2018-08-23T07:28:07.298Z,79.23
2018-08-23T07:30:38.607Z,79.90
2018-08-23T07:33:08.536Z,78.40
2018-08-23T07:35:39.355Z,70.00
2018-08-23T07:38:09.685Z,80.30
2018-08-23T07:40:41.535Z,68.73
2018-08-23T07:43:12.602Z,70.20
2018-08-23T07:45:42.698Z,60.50
2018-08-23T07:48:12.563Z,70.17
2018-08-23T07:50:42.688Z,66.70
2018-08-23T07:53:13.542Z,63.20
2018-08-23T07:55:44.323Z,66.80
2018-08-23T07:58:14.234Z,63.50
2018-08-23T08:00:46.436Z,65.20
2018-08-23T08:03:15.909Z,63.17
2018-08-23T08:05:47.411Z,65.93
2018-08-23T08:08:18.218Z,64.37
2018-08-23T08:10:49.518Z,70.93
2018-08-23T08:13:20.741Z,66.67
2018-08-23T08:15:52.378Z,64.63
2018-08-23T08:18:23.490Z,62.57
2018-08-23T08:21:01.774Z,56.80
2018-08-23T08:23:33.074Z,57.13
2018-08-23T08:26:03.318Z,60.13
2018-08-23T08:28:32.601Z,48.77
2018-08-23T08:31:03.359Z,48.57
2018-08-23T08:33:35.757Z,48.50
2018-08-23T08:36:06.719Z,47.73
2018-08-23T08:38:38.318Z,48.27
2018-08-23T08:41:09.622Z,50.47
2018-08-23T08:43:43.335Z,40.93
2018-08-23T08:46:13.251Z,41.37
2018-08-23T08:48:44.031Z,45.03
2018-08-23T08:51:29.159Z,38.77
2018-08-23T08:54:00.564Z,39.53
2018-08-23T08:56:35.016Z,41.60
2018-08-23T08:59:05.076Z,39.83
2018-08-23T09:01:36.756Z,43.37
2018-08-23T09:04:06.411Z,37.67
2018-08-23T09:06:51.020Z,36.13
2018-08-23T09:09:40.639Z,39.23
2018-08-23T09:12:12.554Z,39.80
2018-08-23T09:14:44.786Z,38.67
2018-08-23T09:17:31.174Z,43.00
2018-08-23T09:20:09.321Z,41.53
2018-08-23T09:22:42.619Z,36.10
2018-08-23T09:25:21.181Z,31.20
2018-08-23T09:27:52.735Z,32.47
2018-08-23T09:30:30.391Z,32.50
2018-08-23T09:33:05.219Z,37.57
2018-08-23T09:35:36.550Z,40.70
2018-08-23T09:38:14.070Z,28.03
2018-08-23T09:40:45.112Z,23.37
2018-08-23T09:43:14.782Z,21.33
2018-08-23T09:45:45.970Z,21.00
2018-08-23T09:48:16.186Z,23.03
2018-08-23T09:50:46.869Z,18.90
2018-08-23T09:53:22.270Z,17.50
2018-08-23T09:55:52.522Z,16.73
2018-08-23T09:58:27.173Z,21.10
2018-08-23T10:01:03.160Z,12.90
2018-08-23T10:03:39.472Z,10.67
2018-08-23T10:06:15.107Z,15.73
2018-08-23T10:08:51.746Z,12.73
2018-08-23T10:11:28.154Z,16.93
2018-08-23T10:14:03.638Z,19.23
2018-08-23T10:16:40.452Z,17.57
2018-08-23T10:19:16.855Z,17.77
2018-08-23T10:21:52.223Z,23.83
2018-08-23T10:24:25.561Z,17.10
2018-08-23T10:26:56.733Z,11.67
2018-08-23T10:29:28.967Z,18.80
2018-08-23T10:31:59.195Z,15.83
2018-08-23T10:34:30.941Z,21.53
2018-08-23T10:37:02.766Z,20.07
2018-08-23T10:39:32.797Z,16.97
2018-08-23T10:42:03.190Z,17.70
2018-08-23T10:44:32.690Z,19.37
2018-08-23T10:47:02.518Z,16.27
2018-08-23T10:49:34.007Z,15.80
2018-08-23T10:52:04.673Z,15.70
2018-08-23T10:54:35.185Z,14.60
2018-08-23T10:57:05.215Z,20.53
2018-08-23T10:59:36.384Z,14.53
2018-08-23T11:02:07.130Z,13.40
2018-08-23T11:04:37.273Z,20.60
2018-08-23T11:07:08.248Z,20.13
2018-08-23T11:09:43.465Z,21.03
2018-08-23T11:12:18.413Z,20.93
2018-08-23T11:14:48.575Z,23.27
2018-08-23T11:17:24.841Z,22.63
2018-08-23T11:20:01.084Z,21.43
2018-08-23T11:22:36.466Z,21.37
2018-08-23T11:25:08.039Z,20.57
2018-08-23T11:27:38.187Z,25.03
2018-08-23T11:30:09.465Z,24.20
2018-08-23T11:32:41.370Z,21.13
2018-08-23T11:35:12.347Z,22.07
2018-08-23T11:37:42.202Z,21.80
2018-08-23T11:40:12.732Z,25.33
2018-08-23T11:42:44.033Z,27.17
2018-08-23T11:45:14.110Z,29.63
2018-08-23T11:47:44.183Z,30.60
2018-08-23T11:50:15.322Z,35.77
2018-08-23T11:52:46.342Z,27.97
2018-08-23T11:55:15.948Z,38.27
2018-08-23T11:57:45.099Z,33.70
2018-08-23T12:00:15.133Z,31.37
2018-08-23T12:02:46.204Z,30.37
2018-08-23T12:05:17.515Z,34.77
2018-08-23T12:07:52.382Z,36.13
2018-08-23T12:10:25.448Z,29.97
2018-08-23T12:12:57.067Z,36.23
2018-08-23T12:15:30.665Z,39.07
2018-08-23T12:18:01.359Z,32.50
2018-08-23T12:20:30.998Z,31.47
2018-08-23T12:23:01.215Z,34.87
2018-08-23T12:25:33.489Z,29.50
2018-08-23T12:28:10.271Z,29.10
2018-08-23T12:30:40.336Z,30.90
2018-08-23T12:33:11.892Z,25.00
2018-08-23T12:35:42.225Z,31.47
2018-08-23T12:38:22.131Z,30.60
2018-08-23T12:40:58.251Z,27.37
2018-08-23T12:43:33.836Z,32.13
2018-08-23T12:46:04.306Z,28.37
2018-08-23T12:48:34.463Z,30.10
2018-08-23T12:51:04.088Z,31.97
2018-08-23T12:53:34.218Z,27.07
2018-08-23T12:56:04.416Z,28.50
2018-08-23T12:58:36.523Z,21.77
2018-08-23T13:01:07.859Z,25.70
2018-08-23T13:03:38.828Z,25.80
2018-08-23T13:06:10.203Z,28.57
2018-08-23T13:08:40.947Z,25.40
2018-08-23T13:11:10.766Z,25.13
2018-08-23T13:13:40.034Z,21.90
2018-08-23T13:16:09.507Z,20.87
2018-08-23T13:18:39.886Z,21.50
2018-08-23T13:21:09.478Z,23.93
2018-08-23T13:23:42.952Z,20.70
2018-08-23T13:26:14.151Z,20.57
2018-08-23T13:28:45.199Z,21.03
2018-08-23T13:31:15.594Z,21.70
2018-08-23T13:33:47.126Z,22.87
2018-08-23T13:36:17.016Z,18.90
2018-08-23T13:38:48.902Z,21.07
2018-08-23T13:41:20.522Z,23.47
2018-08-23T13:43:50.849Z,19.73
2018-08-23T13:46:21.997Z,21.00
2018-08-23T13:48:52.267Z,19.20
2018-08-23T13:51:22.010Z,17.47
2018-08-23T13:53:52.716Z,20.37
2018-08-23T13:56:24.292Z,18.90
2018-08-23T13:58:57.130Z,17.53
2018-08-23T14:01:28.826Z,16.20
2018-08-23T14:03:59.472Z,20.03
2018-08-23T14:06:29.568Z,15.33
2018-08-23T14:09:01.054Z,17.03
2018-08-23T14:11:31.070Z,15.97
2018-08-23T14:14:01.419Z,18.70
2018-08-23T14:16:32.829Z,19.53
2018-08-23T14:19:03.094Z,20.93
2018-08-23T14:21:33.395Z,21.57
2018-08-23T14:24:05.055Z,19.73
2018-08-23T14:26:35.143Z,17.30
2018-08-23T14:29:04.407Z,21.27
2018-08-23T14:31:35.111Z,20.37
2018-08-23T14:34:05.462Z,19.80
2018-08-23T14:36:38.015Z,22.17
2018-08-23T14:39:09.930Z,24.17
2018-08-23T14:41:39.867Z,23.33
2018-08-23T14:44:11.123Z,21.00
2018-08-23T14:46:45.879Z,23.70
2018-08-23T14:49:21.257Z,20.03
2018-08-23T14:51:51.759Z,21.20
2018-08-23T14:54:28.025Z,23.20
2018-08-23T14:57:04.122Z,18.70
2018-08-23T14:59:35.019Z,18.17
2018-08-23T15:02:05.934Z,19.37
2018-08-23T15:04:37.061Z,17.97
2018-08-23T15:07:09.022Z,15.53
2018-08-23T15:09:38.995Z,14.70
2018-08-23T15:12:10.179Z,15.97
2018-08-23T15:14:40.090Z,14.50
2018-08-23T15:17:10.655Z,14.50
2018-08-23T15:19:41.102Z,13.43
2018-08-23T15:22:11.363Z,15.10
2018-08-23T15:24:42.053Z,14.50
2018-08-23T15:27:14.161Z,13.10
2018-08-23T15:29:43.887Z,14.20
2018-08-23T15:32:14.078Z,12.30
2018-08-23T15:34:44.300Z,15.27
2018-08-23T15:37:15.239Z,12.60
2018-08-23T15:39:46.054Z,12.80
2018-08-23T15:42:16.304Z,15.93
2018-08-23T15:44:47.719Z,8.73
2018-08-23T15:47:18.675Z,10.60
2018-08-23T15:49:48.896Z,13.90
2018-08-23T15:52:19.666Z,12.53
2018-08-23T15:54:50.002Z,15.07
2018-08-23T15:57:20.490Z,13.37
2018-08-23T15:59:51.899Z,13.13
2018-08-23T16:02:22.283Z,13.47
2018-08-23T16:04:51.978Z,14.53
2018-08-23T16:07:24.647Z,11.07
2018-08-23T16:09:54.190Z,13.50
2018-08-23T16:12:24.914Z,11.90
2018-08-23T16:14:55.327Z,12.30
2018-08-23T16:17:29.754Z,14.80
2018-08-23T16:20:04.587Z,12.30
2018-08-23T16:22:36.226Z,11.30
2018-08-23T16:25:07.145Z,11.83
2018-08-23T16:27:37.334Z,13.13
2018-08-23T16:30:08.309Z,14.27
2018-08-23T16:32:38.487Z,12.33
2018-08-23T16:35:09.414Z,11.40
2018-08-23T16:37:41.467Z,11.10
2018-08-23T16:40:10.737Z,14.50
2018-08-23T16:42:39.875Z,12.17
2018-08-23T16:45:12.115Z,15.87
2018-08-23T16:47:43.059Z,23.10
2018-08-23T16:50:13.730Z,13.27
2018-08-23T16:52:44.214Z,15.90
2018-08-23T16:55:15.279Z,11.97
2018-08-23T16:57:46.835Z,12.07
2018-08-23T17:00:17.598Z,12.50
2018-08-23T17:02:49.326Z,13.30
2018-08-23T17:05:20.378Z,18.03
2018-08-23T17:07:51.063Z,13.57
2018-08-23T17:10:22.894Z,12.27
2018-08-23T17:12:53.334Z,15.30
2018-08-23T17:15:23.225Z,14.57
2018-08-23T17:17:56.507Z,12.83
2018-08-23T17:20:28.025Z,14.23
2018-08-23T17:22:59.986Z,13.53
2018-08-23T17:25:31.341Z,11.87
2018-08-23T17:28:02.856Z,9.73
2018-08-23T17:30:33.042Z,11.13
2018-08-23T17:33:04.834Z,8.97
2018-08-23T17:35:34.942Z,9.43
2018-08-23T17:38:04.446Z,10.77
2018-08-23T17:40:34.211Z,9.00
2018-08-23T17:43:04.068Z,11.37
2018-08-23T17:45:34.678Z,8.50
2018-08-23T17:48:05.086Z,8.83
2018-08-23T17:50:37.071Z,9.33
2018-08-23T17:53:08.058Z,9.27
2018-08-23T17:55:36.991Z,7.97
2018-08-23T17:58:07.322Z,10.77
2018-08-23T18:00:39.052Z,7.10
2018-08-23T18:03:09.310Z,11.23
2018-08-23T18:05:38.910Z,8.77
2018-08-23T18:08:08.998Z,12.57
2018-08-23T18:10:40.127Z,9.07
2018-08-23T18:13:10.900Z,9.43
2018-08-23T18:16:47.232Z,7.53
2018-08-23T18:19:17.667Z,7.93
2018-08-23T18:21:48.911Z,6.87
2018-08-23T18:24:18.426Z,11.10
2018-08-23T18:26:50.210Z,9.47
2018-08-23T18:29:20.916Z,11.00
2018-08-23T18:31:52.856Z,8.13
2018-08-23T18:34:24.422Z,9.67
2018-08-23T18:36:55.231Z,9.20
2018-08-23T18:39:24.957Z,7.87
2018-08-23T18:41:55.755Z,10.10
2018-08-23T18:44:26.472Z,10.27
2018-08-23T18:46:58.234Z,9.53
2018-08-23T18:49:29.863Z,7.67
2018-08-23T18:51:59.911Z,8.00
2018-08-23T18:54:29.271Z,6.60
2018-08-23T18:56:58.430Z,7.33
2018-08-23T18:59:27.987Z,7.13
2018-08-23T19:01:58.362Z,6.60
2018-08-23T19:04:28.039Z,9.63
2018-08-23T19:06:58.372Z,7.53
2018-08-23T19:09:27.947Z,8.07
2018-08-23T19:11:57.793Z,9.83
2018-08-23T19:14:28.366Z,10.10
2018-08-23T19:17:03.877Z,8.70
2018-08-23T19:19:34.934Z,7.27
2018-08-23T19:22:05.697Z,9.90
2018-08-23T19:24:35.759Z,9.10
2018-08-23T19:27:07.156Z,12.10
2018-08-23T19:29:37.842Z,7.90
2018-08-23T19:32:08.335Z,8.13
2018-08-23T19:34:38.203Z,6.80
2018-08-23T19:37:09.995Z,6.93
2018-08-23T19:39:40.379Z,7.60
2018-08-23T19:42:11.958Z,8.90
2018-08-23T19:44:48.407Z,6.00
2018-08-23T19:47:25.563Z,7.20
2018-08-23T19:49:57.458Z,5.30
2018-08-23T19:52:27.986Z,7.37
2018-08-23T19:54:59.280Z,7.20
2018-08-23T19:57:29.759Z,7.50
2018-08-23T20:00:01.231Z,6.77
2018-08-23T20:02:30.799Z,6.10
2018-08-23T20:05:00.543Z,4.50
2018-08-23T20:07:32.062Z,4.93
2018-08-23T20:10:02.126Z,6.33
2018-08-23T20:12:32.262Z,7.30
2018-08-23T20:15:01.631Z,10.50
2018-08-23T20:17:31.934Z,5.63
2018-08-23T20:20:02.383Z,8.53
2018-08-23T20:22:32.058Z,7.57
2018-08-23T20:25:03.547Z,5.97
2018-08-23T20:27:35.458Z,5.87
2018-08-23T20:30:05.307Z,8.87
2018-08-23T20:32:35.950Z,6.63
2018-08-23T20:35:07.774Z,6.93
2018-08-23T20:37:39.716Z,6.37
2018-08-23T20:40:10.026Z,10.50
2018-08-23T20:42:39.762Z,10.07
2018-08-23T20:45:11.234Z,6.43
2018-08-23T20:47:40.366Z,7.53
2018-08-23T20:50:10.469Z,9.33
2018-08-23T20:52:42.092Z,5.13
2018-08-23T20:55:12.482Z,5.07
2018-08-23T20:57:44.502Z,5.03
2018-08-23T21:00:16.231Z,6.43
2018-08-23T21:02:47.073Z,4.60
2018-08-23T21:05:19.179Z,5.37
2018-08-23T21:07:50.659Z,4.30
2018-08-23T21:10:20.942Z,5.37
2018-08-23T21:12:52.564Z,4.33
2018-08-23T21:15:22.882Z,3.40
2018-08-23T21:17:52.255Z,6.43
2018-08-23T21:20:22.197Z,4.43
2018-08-23T21:22:51.482Z,5.60
2018-08-23T21:25:21.090Z,4.50
2018-08-23T21:27:53.075Z,5.93
2018-08-23T21:30:22.818Z,4.77
2018-08-23T21:32:54.327Z,6.63
2018-08-23T21:35:24.379Z,7.13
2018-08-23T21:37:55.183Z,6.80
2018-08-23T21:40:26.275Z,6.10
2018-08-23T21:42:57.667Z,7.10
2018-08-23T21:45:28.884Z,5.63
2018-08-23T21:47:59.508Z,5.67
2018-08-23T21:50:30.915Z,6.50
2018-08-23T21:53:00.919Z,4.03
2018-08-23T21:55:37.448Z,7.00
2018-08-23T21:58:09.316Z,5.70
2018-08-23T22:00:44.631Z,5.23
2018-08-23T22:03:16.142Z,5.67
2018-08-23T22:05:46.378Z,4.17
2018-08-23T22:08:16.050Z,6.43
2018-08-23T22:10:46.786Z,5.30
2018-08-23T22:13:17.083Z,5.23
2018-08-23T22:15:49.290Z,4.93
2018-08-23T22:18:21.177Z,5.10
2018-08-23T22:20:52.458Z,3.73
2018-08-23T22:23:23.367Z,4.67
2018-08-23T22:25:55.038Z,3.90
2018-08-23T22:28:24.795Z,9.23
2018-08-23T22:30:54.807Z,4.00
2018-08-23T22:33:25.998Z,4.40
2018-08-23T22:35:58.295Z,3.23
2018-08-23T22:38:29.399Z,3.27
2018-08-23T22:41:00.446Z,3.70
2018-08-23T22:43:31.423Z,6.40
2018-08-23T22:46:00.871Z,4.37
2018-08-23T22:48:32.094Z,5.83
2018-08-23T22:51:01.903Z,4.20
2018-08-23T22:53:33.715Z,3.70
2018-08-23T22:56:03.878Z,4.70
2018-08-23T22:58:34.970Z,3.93
2018-08-23T23:01:05.115Z,2.87
2018-08-23T23:03:40.951Z,7.37
2018-08-23T23:06:11.986Z,3.63
2018-08-23T23:08:42.305Z,4.20
2018-08-23T23:11:12.079Z,3.97
2018-08-23T23:13:44.531Z,5.10
2018-08-23T23:16:15.026Z,4.73
2018-08-23T23:18:45.385Z,2.40
2018-08-23T23:21:17.845Z,3.57
2018-08-23T23:23:47.830Z,5.60
2018-08-23T23:26:17.691Z,4.20
2018-08-23T23:28:47.833Z,5.40
2018-08-23T23:31:17.899Z,5.10
2018-08-23T23:33:48.239Z,6.43
2018-08-23T23:36:19.219Z,5.57
2018-08-23T23:38:48.947Z,7.23
2018-08-23T23:41:19.145Z,7.80
2018-08-23T23:43:50.337Z,9.27
2018-08-23T23:46:19.849Z,8.83
2018-08-23T23:48:51.022Z,7.93
2018-08-23T23:51:22.795Z,9.70
2018-08-23T23:53:54.810Z,10.17
2018-08-23T23:56:24.497Z,10.57
2018-08-23T23:58:55.467Z,10.00
